INFORMACIÓN METAR y TAF
METAR FOR EKVG
ADDS - METARS form results

(0105 UTC 29 May 2020)
Data provider http://aviationweather.gov/metar/data/
 
METAR text: EKVG 290050Z AUTO 17005KT 080V190 9999 BKN000/// 08/08 Q1027
Conditions at: EKVG (SORVAAG/VAGAR , DK) observed 0050 UTC 29 May 2020
Temperature: 8.0°C (46°F)
Dewpoint: 8.0°C (46°F) [RH = 100%]
Pressure (altimeter): 30.32 inches Hg (1027.0 mb)
Winds: from the S (170 degrees) at 6 MPH (5 knots; 2.6 m/s)
Visibility: 6 or more miles (10+ km)
Ceiling: 0 feet AGL
Clouds: broken clouds at 0 feet AGL
Weather: no significant weather observed at this time

METAR text: EKVG 290020Z AUTO 13004KT 090V160 8000 BKN003/// 08/08 Q1027
Conditions at: EKVG (SORVAAG/VAGAR , DK) observed 0020 UTC 29 May 2020
Temperature: 8.0°C (46°F)
Dewpoint: 8.0°C (46°F) [RH = 100%]
Pressure (altimeter): 30.32 inches Hg (1027.0 mb)
Winds: from the SE (130 degrees) at 5 MPH (4 knots; 2.1 m/s)
Visibility: 5 miles ( 8 km)
Ceiling: 300 feet AGL
Clouds: broken clouds at 300 feet AGL
Weather: no significant weather observed at this time

Forecast for: EKVG (SORVAAG/VAGAR , DK)
Text: TAF EKVG 281421Z 2815/2821 17007KT 9999 SCT004 BKN010 OVC018
Forecast period: 1500 to 2100 UTC 28 May 2020
Forecast type: FROM: standard forecast or significant change
Winds: from the S (170 degrees) at 8 MPH (7 knots; 3.6 m/s)
Visibility: 6 or more miles 10+ km)
Ceiling: 1000 feet AGL
Clouds: scattered clouds at 400 feet AGL
broken clouds at 1000 feet AGL
overcast cloud deck at 1800 feet AGL
Weather: no significant weather forecast for this period
Text: TEMPO 2815/2821 1500 BR BKN002 OVC007
Forecast period: 1500 to 2100 UTC 28 May 2020
Forecast type: TEMPORARY: The following changes expected for less than half the time period
Visibility: 0.93 miles (1.50 km)
Ceiling: 200 feet AGL
Clouds: broken clouds at 200 feet AGL
overcast cloud deck at 700 feet AGL
Weather: BR  (mist)

 MAPA DE AEROPUERTO

 INFORMACIÓN DE PISTA
Pista 13 Longitud 5902 ft Ancho 98 ft
Elevación 268 ft Umbral desplazado 0 ft Rumbo de pista 118
Pista 31 Longitud 5902 ft Ancho 98 ft
Elevación 252 ft Umbral desplazado 0 ft Rumbo de pista 298

 FRECUANCIAS DEL AEROPUERTO
Tipo AFIS Nombre AFIS Frecuencia 124.85 MHZ

 RADIO AYUDAS DEL AEROPUERTO
Tipo NDB Nombre Myggenes Frecuencia 337 KHZ
Tipo NDB Nombre Nolso Frecuencia 404 KHZ
Tipo NDB Nombre Vagar Frecuencia 348 KHZ



Powered by Virtual Airlines Manager [v2.6.2]